Time;durP1;ratioP1;P1;durP2;ratioP2;P2;SDS_P1;SDS_P2;PMS_P1;PMS_P2;Temp;Humidity;BMP_temperature;BMP_pressure;BME280_temperature;BME280_humidity;BME280_pressure;Samples;Min_cycle;Max_cycle;Signal;HPM_P1;HPM_P2
2021/10/08 00:02:24;;;;;;;11.05;8.35;;;8.50;99.90;;;;;;4956693;29;20043;-75
2021/10/08 00:04:49;;;;;;;10.88;7.80;;;8.40;99.90;;;;;;4957034;28;20074;-75
2021/10/08 00:07:15;;;;;;;8.73;6.97;;;8.30;99.90;;;;;;4939622;29;20101;-75
2021/10/08 00:09:40;;;;;;;11.43;7.07;;;8.40;99.90;;;;;;4959184;28;20027;-74
2021/10/08 00:12:07;;;;;;;10.38;7.57;;;8.50;99.90;;;;;;4956639;29;20058;-74
2021/10/08 00:14:33;;;;;;;10.25;7.63;;;8.40;99.90;;;;;;4956583;29;20082;-75
2021/10/08 00:16:59;;;;;;;8.00;6.70;;;8.40;99.90;;;;;;4950314;28;20030;-74
2021/10/08 00:19:25;;;;;;;13.02;7.03;;;8.40;99.90;;;;;;4940709;29;20487;-76
2021/10/08 00:21:51;;;;;;;10.70;7.78;;;8.60;99.90;;;;;;4939173;29;20041;-75
2021/10/08 00:24:16;;;;;;;13.65;8.35;;;8.80;99.90;;;;;;4956627;28;20094;-76
2021/10/08 00:26:42;;;;;;;9.27;7.38;;;8.80;99.90;;;;;;4942790;28;20082;-76
2021/10/08 00:29:08;;;;;;;9.43;7.20;;;8.70;99.90;;;;;;4955021;29;20402;-75
2021/10/08 00:31:34;;;;;;;9.27;7.47;;;8.80;99.90;;;;;;4956197;29;20023;-76
2021/10/08 00:34:00;;;;;;;10.63;6.93;;;8.80;99.90;;;;;;4941742;29;20099;-75
2021/10/08 00:36:25;;;;;;;9.90;7.22;;;8.90;99.90;;;;;;4956190;28;20038;-76
2021/10/08 00:38:52;;;;;;;10.38;7.20;;;9.00;99.90;;;;;;4956478;29;20025;-76
2021/10/08 00:41:22;;;;;;;10.40;6.50;;;9.00;99.90;;;;;;4956244;28;20026;-76
2021/10/08 00:43:48;;;;;;;8.38;6.82;;;9.10;99.90;;;;;;4955964;28;20046;-75
2021/10/08 00:46:13;;;;;;;10.63;5.75;;;9.30;99.90;;;;;;4956253;29;20032;-74
2021/10/08 00:48:40;;;;;;;11.60;6.68;;;9.20;99.90;;;;;;4956064;28;20023;-75
2021/10/08 00:51:05;;;;;;;7.15;6.25;;;9.20;99.90;;;;;;4938626;29;20035;-75
2021/10/08 00:53:31;;;;;;;7.82;6.30;;;9.10;99.90;;;;;;4956048;29;20035;-75
2021/10/08 00:55:56;;;;;;;8.82;6.07;;;9.10;99.90;;;;;;4956093;29;20031;-74
2021/10/08 00:58:23;;;;;;;8.55;5.93;;;9.00;99.90;;;;;;4955638;29;20027;-75
2021/10/08 01:00:51;;;;;;;8.73;6.20;;;9.00;99.90;;;;;;4955900;29;20297;-75
2021/10/08 01:03:19;;;;;;;10.90;6.20;;;9.00;99.90;;;;;;4938564;29;20027;-76
2021/10/08 01:05:45;;;;;;;6.70;5.80;;;9.00;99.90;;;;;;4955904;29;20094;-77
2021/10/08 01:08:11;;;;;;;9.88;5.78;;;9.00;99.90;;;;;;4938529;29;20151;-76
2021/10/08 01:10:41;;;;;;;9.93;6.57;;;9.00;99.90;;;;;;4968073;28;20038;-76
2021/10/08 01:13:08;;;;;;;10.15;6.18;;;8.90;99.90;;;;;;4955647;28;20078;-75
2021/10/08 01:15:34;;;;;;;8.05;6.22;;;9.00;99.90;;;;;;4954819;29;20031;-77
2021/10/08 01:18:00;;;;;;;10.02;6.70;;;9.00;99.90;;;;;;4959673;28;20099;-76
2021/10/08 01:20:26;;;;;;;6.97;5.88;;;9.00;99.90;;;;;;4954756;29;20079;-77
2021/10/08 01:22:57;;;;;;;9.98;5.93;;;9.10;99.90;;;;;;4956778;28;20039;-76
2021/10/08 01:25:27;;;;;;;9.52;5.90;;;9.10;99.90;;;;;;4940860;29;20034;-77
2021/10/08 01:27:52;;;;;;;7.82;5.97;;;9.10;99.90;;;;;;4941895;29;20479;-76
2021/10/08 01:30:19;;;;;;;9.43;6.22;;;9.10;99.90;;;;;;4938023;29;20033;-74
2021/10/08 01:32:46;;;;;;;9.82;6.13;;;9.10;99.90;;;;;;4955225;29;20031;-75
2021/10/08 01:35:12;;;;;;;7.72;6.43;;;9.00;99.90;;;;;;4955339;29;20449;-75
2021/10/08 01:37:38;;;;;;;9.65;6.00;;;9.00;99.90;;;;;;4955268;28;20070;-74
2021/10/08 01:40:04;;;;;;;5.90;5.30;;;8.90;99.90;;;;;;4955125;28;20035;-73
2021/10/08 01:42:30;;;;;;;6.95;5.68;;;8.90;99.90;;;;;;4938564;29;20486;-74
2021/10/08 01:44:56;;;;;;;8.27;5.80;;;9.00;99.90;;;;;;4952246;28;20035;-75
2021/10/08 01:47:21;;;;;;;10.02;6.18;;;9.00;99.90;;;;;;4954360;29;20031;-76
2021/10/08 01:49:47;;;;;;;9.38;6.10;;;9.00;99.90;;;;;;4943031;29;20166;-75
2021/10/08 01:52:12;;;;;;;8.75;5.90;;;9.00;99.90;;;;;;4955260;29;20035;-76
2021/10/08 01:54:38;;;;;;;9.23;6.45;;;8.90;99.90;;;;;;4937685;29;20401;-75
2021/10/08 01:57:03;;;;;;;10.88;6.25;;;8.90;99.90;;;;;;4955000;28;20062;-75
2021/10/08 01:59:29;;;;;;;8.90;6.70;;;8.90;99.90;;;;;;4954900;28;20042;-76
2021/10/08 02:01:55;;;;;;;8.50;6.50;;;9.00;99.90;;;;;;4954653;28;20044;-74
2021/10/08 02:04:20;;;;;;;10.38;6.07;;;9.00;99.90;;;;;;4954751;29;20042;-76
2021/10/08 02:06:46;;;;;;;10.98;6.53;;;9.00;99.90;;;;;;4954945;29;20043;-76
2021/10/08 02:09:11;;;;;;;8.45;6.13;;;9.10;99.90;;;;;;4955854;28;20391;-77
2021/10/08 02:11:37;;;;;;;11.07;6.15;;;9.00;99.90;;;;;;4948940;28;20478;-76
2021/10/08 02:14:04;;;;;;;8.90;6.72;;;9.00;99.90;;;;;;4954513;28;20035;-76
2021/10/08 02:16:29;;;;;;;11.75;6.65;;;9.00;99.90;;;;;;4944225;28;20026;-77
2021/10/08 02:18:56;;;;;;;8.63;6.53;;;8.90;99.90;;;;;;4959981;28;20038;-77
2021/10/08 02:21:23;;;;;;;10.07;6.30;;;8.80;99.90;;;;;;4937111;29;20019;-77
2021/10/08 02:23:49;;;;;;;8.40;6.13;;;8.90;99.90;;;;;;4954018;28;20059;-77
2021/10/08 02:26:15;;;;;;;7.47;6.63;;;8.80;99.90;;;;;;4954422;29;20070;-76
2021/10/08 02:28:41;;;;;;;11.35;6.68;;;8.80;99.90;;;;;;4937381;29;20035;-76
2021/10/08 02:31:07;;;;;;;11.18;7.57;;;8.80;99.90;;;;;;4954373;29;20474;-76
2021/10/08 02:33:34;;;;;;;10.52;6.63;;;8.80;99.90;;;;;;4936945;29;20039;-77
2021/10/08 02:36:04;;;;;;;10.02;6.40;;;8.80;99.90;;;;;;4937257;29;20024;-76
2021/10/08 02:38:29;;;;;;;9.30;6.90;;;8.70;99.90;;;;;;4954075;28;20437;-77
2021/10/08 02:40:55;;;;;;;14.43;7.05;;;8.90;99.90;;;;;;4953993;28;20038;-76
2021/10/08 02:43:21;;;;;;;8.25;7.00;;;8.80;99.90;;;;;;4954102;29;20035;-77
2021/10/08 02:45:47;;;;;;;11.60;7.20;;;8.70;99.90;;;;;;4954226;29;20063;-77
2021/10/08 02:48:13;;;;;;;8.82;6.93;;;8.80;99.90;;;;;;4936753;29;20039;-76
2021/10/08 02:50:38;;;;;;;8.45;7.15;;;8.80;99.90;;;;;;4953875;29;20043;-76
2021/10/08 02:53:04;;;;;;;10.48;7.05;;;8.80;99.90;;;;;;4936692;28;20054;-76
2021/10/08 02:55:30;;;;;;;9.15;6.60;;;8.70;99.90;;;;;;4954009;29;20027;-76
2021/10/08 02:57:56;;;;;;;11.07;7.22;;;8.60;99.90;;;;;;4953771;28;20078;-76
2021/10/08 03:00:21;;;;;;;9.43;7.20;;;8.60;99.90;;;;;;4954398;29;20034;-77
2021/10/08 03:02:47;;;;;;;11.93;7.53;;;8.60;99.90;;;;;;4953577;29;20397;-76
2021/10/08 03:05:12;;;;;;;9.77;7.00;;;8.60;99.90;;;;;;4953879;29;20024;-76
2021/10/08 03:07:38;;;;;;;9.65;6.75;;;8.60;99.90;;;;;;4936387;29;20055;-76
2021/10/08 03:10:06;;;;;;;10.98;7.97;;;8.50;99.90;;;;;;4961950;28;20101;-76
2021/10/08 03:12:32;;;;;;;12.15;7.90;;;8.40;99.90;;;;;;4957827;28;20027;-77
2021/10/08 03:14:57;;;;;;;9.88;7.90;;;8.30;99.90;;;;;;4953741;28;20030;-77
2021/10/08 03:17:23;;;;;;;11.93;7.35;;;8.30;99.90;;;;;;4948563;28;20035;-76
2021/10/08 03:19:48;;;;;;;12.27;7.95;;;8.20;99.90;;;;;;4953593;29;20031;-76
2021/10/08 03:22:14;;;;;;;10.45;8.48;;;8.20;99.90;;;;;;4953259;28;20035;-76
2021/10/08 03:24:40;;;;;;;10.60;7.90;;;8.30;99.90;;;;;;4940556;29;20290;-76
2021/10/08 03:27:05;;;;;;;9.25;7.22;;;8.40;99.90;;;;;;4937179;29;20037;-76
2021/10/08 03:29:31;;;;;;;9.63;7.20;;;8.40;99.90;;;;;;4953574;29;20027;-75
2021/10/08 03:31:57;;;;;;;12.68;8.88;;;8.40;99.90;;;;;;4953597;29;20485;-76
2021/10/08 03:34:23;;;;;;;11.93;7.53;;;8.30;99.90;;;;;;4953571;28;20098;-76
2021/10/08 03:36:50;;;;;;;11.48;8.02;;;8.40;99.90;;;;;;4957176;28;20106;-76
2021/10/08 03:39:38;;;;;;;11.63;9.07;;;8.40;99.90;;;;;;4957525;29;20024;-76
2021/10/08 03:42:05;;;;;;;12.27;7.90;;;8.40;99.90;;;;;;4939965;29;20441;-74
2021/10/08 03:44:37;;;;;;;9.77;7.95;;;8.40;99.90;;;;;;4957359;29;20082;-75
2021/10/08 03:47:13;;;;;;;12.45;8.48;;;8.40;99.90;;;;;;4940252;29;20123;-76
2021/10/08 03:49:39;;;;;;;11.25;7.82;;;8.40;99.90;;;;;;4940060;29;20034;-77
2021/10/08 03:52:04;;;;;;;15.80;8.90;;;8.40;99.90;;;;;;4957124;28;20462;-76
2021/10/08 03:54:30;;;;;;;11.77;8.57;;;8.40;99.90;;;;;;4926988;29;20497;-75
2021/10/08 03:56:55;;;;;;;10.98;8.20;;;8.50;99.90;;;;;;4921163;29;20474;-75
2021/10/08 03:59:21;;;;;;;10.25;8.73;;;8.50;99.90;;;;;;4951372;29;20024;-74
2021/10/08 04:01:47;;;;;;;11.35;8.80;;;8.50;99.90;;;;;;4956733;29;20035;-75
2021/10/08 04:04:12;;;;;;;9.98;8.43;;;8.50;99.90;;;;;;4956305;29;20490;-75
2021/10/08 04:06:38;;;;;;;16.00;8.65;;;8.50;99.90;;;;;;4956938;29;20026;-75
2021/10/08 04:09:05;;;;;;;12.05;8.05;;;8.60;99.90;;;;;;4957390;28;20111;-75
2021/10/08 04:11:31;;;;;;;9.48;7.95;;;8.60;99.90;;;;;;4957508;29;20020;-75
2021/10/08 04:13:57;;;;;;;12.23;8.00;;;8.60;99.90;;;;;;4956592;29;20034;-76
2021/10/08 04:16:22;;;;;;;10.98;8.10;;;8.60;99.90;;;;;;4962926;28;20038;-75
2021/10/08 04:18:48;;;;;;;12.70;8.25;;;8.70;99.90;;;;;;4945863;29;20486;-76
2021/10/08 04:21:14;;;;;;;14.27;9.18;;;8.60;99.90;;;;;;4956862;29;20486;-74
2021/10/08 04:23:39;;;;;;;13.48;9.48;;;8.70;99.90;;;;;;4956867;29;20023;-75
2021/10/08 04:26:06;;;;;;;15.20;9.60;;;8.70;99.90;;;;;;4943885;29;20027;-76
2021/10/08 04:28:32;;;;;;;11.85;9.38;;;8.80;99.90;;;;;;4943936;29;20443;-76
2021/10/08 04:30:57;;;;;;;15.07;9.35;;;8.80;99.90;;;;;;4950112;29;20037;-76
2021/10/08 04:33:25;;;;;;;12.55;8.80;;;8.90;99.90;;;;;;4950096;29;20067;-75
2021/10/08 04:35:51;;;;;;;13.23;9.10;;;8.90;99.90;;;;;;4950495;28;20039;-75
2021/10/08 04:38:17;;;;;;;12.23;9.40;;;9.00;99.90;;;;;;4932913;29;20401;-75
2021/10/08 04:40:43;;;;;;;12.70;9.52;;;8.90;99.90;;;;;;4943394;29;20055;-75
2021/10/08 04:43:09;;;;;;;14.50;9.20;;;8.90;99.90;;;;;;4944069;29;20028;-75
2021/10/08 04:45:35;;;;;;;10.27;9.10;;;8.90;99.90;;;;;;4955829;28;20033;-74
2021/10/08 04:48:01;;;;;;;12.98;9.75;;;9.00;99.90;;;;;;4942927;29;20047;-75
2021/10/08 04:50:27;;;;;;;18.35;9.63;;;9.00;99.90;;;;;;4949919;29;20024;-75
2021/10/08 04:52:53;;;;;;;14.73;9.50;;;9.00;99.90;;;;;;4937395;29;20435;-76
2021/10/08 04:55:19;;;;;;;12.38;9.15;;;9.10;99.90;;;;;;4920127;29;20058;-76
2021/10/08 04:57:45;;;;;;;13.32;9.25;;;9.20;99.90;;;;;;4937187;29;20032;-76
2021/10/08 05:00:11;;;;;;;12.38;9.52;;;9.20;99.90;;;;;;4950115;29;20035;-76
2021/10/08 05:02:36;;;;;;;10.25;9.13;;;9.20;99.90;;;;;;4949323;29;20027;-75
2021/10/08 05:05:03;;;;;;;10.02;8.63;;;9.10;99.90;;;;;;4943320;29;20650;-76
2021/10/08 05:07:28;;;;;;;12.60;9.50;;;9.10;99.90;;;;;;4926561;29;20067;-76
2021/10/08 05:09:54;;;;;;;13.32;9.18;;;9.00;99.90;;;;;;4962319;28;20057;-76
2021/10/08 05:12:20;;;;;;;14.13;10.02;;;9.00;99.90;;;;;;4961884;28;20474;-76
2021/10/08 05:14:46;;;;;;;12.57;9.45;;;9.00;99.90;;;;;;4949329;29;20503;-76
2021/10/08 05:17:11;;;;;;;21.30;17.77;;;9.00;99.90;;;;;;4949354;29;20070;-76
2021/10/08 05:19:37;;;;;;;18.23;11.20;;;9.00;99.90;;;;;;4943668;29;20034;-77
2021/10/08 05:22:03;;;;;;;17.92;13.18;;;9.00;99.90;;;;;;4942764;29;20136;-76
2021/10/08 05:24:28;;;;;;;11.50;9.55;;;9.00;99.90;;;;;;4931649;29;20479;-76
2021/10/08 05:26:54;;;;;;;16.33;11.25;;;9.00;99.90;;;;;;4949172;29;20031;-76
2021/10/08 05:29:19;;;;;;;12.80;9.65;;;9.00;99.90;;;;;;4926416;29;20474;-76
2021/10/08 05:31:45;;;;;;;11.85;10.05;;;9.00;99.90;;;;;;4942510;29;20038;-76
2021/10/08 05:34:11;;;;;;;17.92;12.13;;;9.10;99.90;;;;;;4948740;29;20028;-76
2021/10/08 05:36:37;;;;;;;16.52;12.00;;;9.00;99.90;;;;;;4949247;29;20123;-76
2021/10/08 05:39:03;;;;;;;16.38;11.00;;;9.10;99.90;;;;;;4926056;29;20122;-75
2021/10/08 05:41:29;;;;;;;17.65;10.30;;;9.10;99.90;;;;;;4942446;29;20028;-72
2021/10/08 05:43:54;;;;;;;15.27;10.35;;;9.10;99.90;;;;;;4948831;29;20123;-74
2021/10/08 05:46:20;;;;;;;14.25;9.55;;;9.10;99.90;;;;;;4949048;29;20035;-76
2021/10/08 05:48:46;;;;;;;13.55;9.63;;;9.20;99.90;;;;;;4942879;29;20032;-76
2021/10/08 05:51:11;;;;;;;13.30;11.05;;;9.30;99.90;;;;;;4942187;29;20475;-76
2021/10/08 05:53:37;;;;;;;14.43;11.80;;;9.20;99.90;;;;;;4942522;29;20027;-75
2021/10/08 05:56:02;;;;;;;13.80;10.65;;;9.30;99.90;;;;;;4955143;29;20517;-76
2021/10/08 05:58:28;;;;;;;18.17;10.50;;;9.30;99.90;;;;;;4931188;29;20087;-76
2021/10/08 06:00:53;;;;;;;14.52;10.57;;;9.40;99.90;;;;;;4948791;29;20028;-76
2021/10/08 06:03:19;;;;;;;13.75;12.27;;;9.40;99.90;;;;;;4942284;29;20051;-76
2021/10/08 06:05:44;;;;;;;18.60;13.73;;;9.50;99.90;;;;;;4942482;29;20449;-75
2021/10/08 06:08:11;;;;;;;22.08;16.95;;;9.50;99.90;;;;;;4948581;29;20494;-76
2021/10/08 06:10:37;;;;;;;23.48;19.73;;;9.50;99.90;;;;;;4953254;29;20019;-76
2021/10/08 06:13:04;;;;;;;15.60;11.30;;;9.50;99.90;;;;;;4924966;29;20383;-75
2021/10/08 06:15:29;;;;;;;18.17;15.27;;;9.50;99.90;;;;;;4925174;29;20043;-76
2021/10/08 06:17:56;;;;;;;16.65;12.88;;;9.60;99.90;;;;;;4948509;29;20056;-75
2021/10/08 06:20:21;;;;;;;14.77;11.43;;;9.60;99.90;;;;;;4948253;29;20046;-75
2021/10/08 06:22:49;;;;;;;14.73;11.43;;;9.60;99.90;;;;;;4941405;29;20035;-75
2021/10/08 06:25:15;;;;;;;17.20;11.77;;;9.60;99.90;;;;;;4924924;29;20138;-73
2021/10/08 06:27:40;;;;;;;15.68;12.52;;;9.60;99.90;;;;;;4935148;29;20035;-76
2021/10/08 06:30:08;;;;;;;16.23;11.10;;;9.70;99.90;;;;;;4947833;29;20027;-73
2021/10/08 06:32:34;;;;;;;14.40;11.77;;;9.80;99.90;;;;;;4930998;29;20090;-73
2021/10/08 06:35:00;;;;;;;15.30;12.05;;;9.80;99.90;;;;;;4947908;29;20494;-74
2021/10/08 06:37:25;;;;;;;15.75;12.95;;;9.80;99.90;;;;;;4948207;29;20039;-76
2021/10/08 06:39:51;;;;;;;16.58;12.27;;;9.90;99.90;;;;;;4930552;29;20035;-75
2021/10/08 06:42:23;;;;;;;19.08;14.30;;;10.00;99.90;;;;;;4930750;29;20383;-73
2021/10/08 06:44:49;;;;;;;17.23;12.80;;;10.10;99.90;;;;;;4935289;29;20031;-74
2021/10/08 06:47:14;;;;;;;15.95;12.88;;;10.20;99.90;;;;;;4942186;29;20027;-75
2021/10/08 06:49:40;;;;;;;17.70;12.70;;;10.20;99.90;;;;;;4940984;29;20036;-75
2021/10/08 06:52:05;;;;;;;18.35;12.95;;;10.40;99.90;;;;;;4947966;29;20572;-75
2021/10/08 06:54:31;;;;;;;20.98;12.65;;;10.50;99.90;;;;;;4944390;29;20070;-76
2021/10/08 06:56:56;;;;;;;19.80;12.70;;;10.50;99.90;;;;;;4926171;29;20074;-75
2021/10/08 06:59:22;;;;;;;17.52;12.70;;;10.60;99.90;;;;;;4951148;29;20042;-76
2021/10/08 07:01:47;;;;;;;19.35;15.02;;;10.80;99.90;;;;;;4954040;29;20050;-75
2021/10/08 07:04:13;;;;;;;19.77;13.95;;;11.00;99.90;;;;;;4954072;29;20398;-75
2021/10/08 07:06:38;;;;;;;20.00;15.15;;;11.10;99.90;;;;;;4948345;29;20023;-75
2021/10/08 07:09:04;;;;;;;23.00;16.27;;;11.20;99.90;;;;;;4918769;29;20026;-75
2021/10/08 07:11:30;;;;;;;22.20;15.65;;;11.20;99.90;;;;;;4941189;29;20494;-75
2021/10/08 07:13:55;;;;;;;25.20;16.52;;;11.10;99.90;;;;;;4936780;29;20041;-75
2021/10/08 07:16:21;;;;;;;25.08;17.63;;;11.20;99.90;;;;;;4936707;29;20038;-75
2021/10/08 07:18:53;;;;;;;22.73;17.63;;;11.20;99.90;;;;;;4936752;29;20118;-75
2021/10/08 07:21:19;;;;;;;27.70;16.85;;;11.30;99.90;;;;;;4953980;29;20024;-75
2021/10/08 07:23:45;;;;;;;30.17;17.65;;;11.40;99.90;;;;;;4940764;29;20027;-75
2021/10/08 07:26:16;;;;;;;29.20;18.38;;;11.60;99.90;;;;;;4953564;28;20019;-75
2021/10/08 07:28:42;;;;;;;29.60;18.20;;;11.70;99.90;;;;;;4952254;29;20041;-75
2021/10/08 07:31:09;;;;;;;28.15;18.42;;;11.80;99.90;;;;;;4921027;29;20052;-76
2021/10/08 07:33:38;;;;;;;31.88;18.95;;;11.90;99.90;;;;;;4947361;29;20082;-76
2021/10/08 07:36:04;;;;;;;27.27;19.27;;;12.10;99.90;;;;;;4944744;29;20031;-75
2021/10/08 07:38:30;;;;;;;26.98;18.98;;;12.10;99.90;;;;;;4934493;29;20028;-75
2021/10/08 07:40:56;;;;;;;24.02;18.23;;;12.10;99.90;;;;;;4917240;29;20024;-75
2021/10/08 07:43:21;;;;;;;28.90;18.52;;;12.10;99.90;;;;;;4917105;29;20501;-75
2021/10/08 07:45:47;;;;;;;24.85;17.50;;;12.20;99.90;;;;;;4934402;29;20023;-75
2021/10/08 07:48:13;;;;;;;26.17;18.38;;;12.20;99.90;;;;;;4934227;29;20028;-75
2021/10/08 07:50:38;;;;;;;30.33;18.73;;;12.20;99.90;;;;;;4934164;29;20431;-75
2021/10/08 07:53:04;;;;;;;27.40;17.98;;;12.40;99.90;;;;;;4934691;29;20043;-75
2021/10/08 07:55:30;;;;;;;25.95;17.58;;;12.50;99.90;;;;;;4917170;29;20509;-75
2021/10/08 07:57:56;;;;;;;25.55;18.25;;;12.60;99.90;;;;;;4917073;29;20558;-75
2021/10/08 08:00:22;;;;;;;27.42;18.50;;;12.70;99.90;;;;;;4934269;29;20112;-75
2021/10/08 08:02:47;;;;;;;24.77;17.90;;;12.70;99.90;;;;;;4917051;29;20446;-75
2021/10/08 08:05:13;;;;;;;28.38;18.98;;;12.70;99.90;;;;;;4924360;29;20023;-75
2021/10/08 08:07:39;;;;;;;27.50;18.67;;;12.80;99.90;;;;;;4953156;28;20489;-75
2021/10/08 08:10:06;;;;;;;26.40;19.33;;;12.70;99.90;;;;;;4961510;28;20093;-74
2021/10/08 08:12:32;;;;;;;26.52;18.13;;;12.60;99.90;;;;;;4953269;28;20023;-75
2021/10/08 08:14:58;;;;;;;25.05;17.73;;;12.70;99.90;;;;;;4953370;28;20063;-75
2021/10/08 08:17:23;;;;;;;26.02;18.33;;;12.80;99.90;;;;;;4956945;28;20028;-75
2021/10/08 08:19:49;;;;;;;23.38;17.52;;;12.90;99.90;;;;;;4953093;28;20486;-74
2021/10/08 08:22:15;;;;;;;24.80;17.30;;;13.00;99.90;;;;;;4955346;28;20031;-74
2021/10/08 08:24:40;;;;;;;26.08;18.08;;;13.10;99.90;;;;;;4942953;29;20119;-75
2021/10/08 08:27:06;;;;;;;24.20;17.92;;;13.20;99.90;;;;;;4939148;29;20039;-75
2021/10/08 08:29:32;;;;;;;23.27;17.60;;;13.20;99.90;;;;;;4956893;29;20066;-75
2021/10/08 08:31:58;;;;;;;24.05;17.00;;;13.30;99.90;;;;;;4956833;29;20539;-75
2021/10/08 08:34:25;;;;;;;23.02;16.60;;;13.30;99.90;;;;;;4956607;28;20110;-75
2021/10/08 08:36:50;;;;;;;22.50;16.98;;;13.40;99.90;;;;;;4956565;29;20031;-75
2021/10/08 08:39:18;;;;;;;23.52;16.90;;;13.40;99.90;;;;;;4939231;29;20106;-75
2021/10/08 08:41:44;;;;;;;25.40;17.05;;;13.50;99.90;;;;;;4943386;29;20103;-75
2021/10/08 08:44:09;;;;;;;23.42;17.13;;;13.40;99.90;;;;;;4956430;29;20103;-75
2021/10/08 08:46:35;;;;;;;22.73;16.40;;;13.40;99.90;;;;;;4956323;28;20031;-75
2021/10/08 08:49:00;;;;;;;23.70;16.23;;;13.40;99.90;;;;;;4956390;29;20039;-75
2021/10/08 08:51:26;;;;;;;23.40;15.60;;;13.40;99.90;;;;;;4937313;29;20023;-75
2021/10/08 08:53:54;;;;;;;21.98;15.98;;;13.50;99.90;;;;;;4919963;29;20037;-75
2021/10/08 08:56:20;;;;;;;19.58;14.57;;;13.50;99.90;;;;;;4951661;29;20027;-75
2021/10/08 08:58:46;;;;;;;21.13;15.57;;;13.60;99.90;;;;;;4956304;29;20094;-75
2021/10/08 09:01:12;;;;;;;19.00;15.00;;;13.60;99.90;;;;;;4939134;29;20489;-74
2021/10/08 09:03:37;;;;;;;21.00;14.52;;;13.60;99.90;;;;;;4938812;29;20035;-74
2021/10/08 09:06:03;;;;;;;19.83;15.65;;;13.50;99.90;;;;;;4938544;29;20019;-74
2021/10/08 09:08:33;;;;;;;21.75;14.18;;;13.50;99.90;;;;;;4955018;28;20474;-74
2021/10/08 09:11:02;;;;;;;20.30;14.02;;;13.50;99.90;;;;;;4956181;28;20457;-74
2021/10/08 09:13:28;;;;;;;21.55;14.98;;;13.40;99.90;;;;;;4943281;29;20093;-74
2021/10/08 09:15:59;;;;;;;20.73;15.27;;;13.40;99.90;;;;;;4946588;28;20421;-74
2021/10/08 09:18:27;;;;;;;20.92;15.23;;;13.50;99.90;;;;;;4947211;28;20031;-74
2021/10/08 09:21:11;;;;;;;19.30;14.18;;;13.60;99.90;;;;;;4942359;29;20038;-74
2021/10/08 09:23:46;;;;;;;18.55;13.93;;;13.70;99.90;;;;;;4948738;28;20027;-74
2021/10/08 09:26:24;;;;;;;18.27;13.23;;;13.80;99.90;;;;;;4955690;29;20019;-74
2021/10/08 09:29:08;;;;;;;18.95;13.75;;;13.70;99.90;;;;;;4955607;29;20050;-74
2021/10/08 09:31:36;;;;;;;19.50;13.52;;;13.80;99.90;;;;;;4938305;29;20023;-74
2021/10/08 09:34:18;;;;;;;17.80;12.73;;;13.80;99.90;;;;;;4955046;28;20038;-74
2021/10/08 09:36:53;;;;;;;16.77;12.65;;;13.90;99.90;;;;;;4938169;29;20038;-74
2021/10/08 09:39:29;;;;;;;16.90;12.93;;;13.90;99.90;;;;;;4955446;28;20031;-74
2021/10/08 09:41:57;;;;;;;17.30;12.37;;;14.00;99.90;;;;;;4955348;29;20098;-74
2021/10/08 09:44:25;;;;;;;16.42;12.25;;;14.20;99.90;;;;;;4955287;28;20582;-73
2021/10/08 09:46:51;;;;;;;17.25;12.88;;;14.20;99.90;;;;;;4938000;29;20034;-73
2021/10/08 09:49:24;;;;;;;21.40;13.57;;;14.10;99.90;;;;;;4955467;29;20027;-73
2021/10/08 09:51:49;;;;;;;16.80;12.50;;;14.30;99.90;;;;;;4954884;29;20027;-73
2021/10/08 09:54:15;;;;;;;15.68;12.20;;;14.40;99.90;;;;;;4955114;29;20485;-73
2021/10/08 09:56:42;;;;;;;16.92;12.38;;;14.50;99.90;;;;;;4954957;29;20055;-73
2021/10/08 09:59:10;;;;;;;16.48;12.65;;;14.60;99.90;;;;;;4954699;29;20597;-73
2021/10/08 10:01:37;;;;;;;17.10;12.02;;;14.50;99.90;;;;;;4935877;29;20126;-73
2021/10/08 10:04:05;;;;;;;19.05;13.43;;;14.50;99.90;;;;;;4954664;29;20035;-73
2021/10/08 10:06:31;;;;;;;17.00;13.02;;;14.60;99.90;;;;;;4954938;29;20485;-73
2021/10/08 10:08:57;;;;;;;16.02;12.00;;;14.80;99.90;;;;;;4954974;28;20038;-74
2021/10/08 10:11:25;;;;;;;15.52;11.23;;;14.90;99.90;;;;;;4967212;28;20043;-74
2021/10/08 10:13:55;;;;;;;15.75;12.05;;;14.80;99.90;;;;;;4954836;29;20023;-74
2021/10/08 10:16:20;;;;;;;15.50;11.35;;;14.80;99.90;;;;;;4943183;28;20069;-74
2021/10/08 10:18:52;;;;;;;13.38;11.20;;;14.80;99.90;;;;;;4960970;28;20063;-74
2021/10/08 10:21:27;;;;;;;15.32;11.70;;;14.90;99.90;;;;;;4954705;29;20026;-74
2021/10/08 10:23:58;;;;;;;16.15;13.70;;;14.90;99.90;;;;;;4956310;28;20031;-73
2021/10/08 10:26:25;;;;;;;16.98;13.65;;;15.00;99.90;;;;;;4955457;29;20027;-74
2021/10/08 10:28:52;;;;;;;17.65;12.60;;;15.00;99.90;;;;;;4937291;29;20023;-73
2021/10/08 10:31:19;;;;;;;15.18;11.38;;;14.80;99.90;;;;;;4954118;29;20512;-73
2021/10/08 10:33:45;;;;;;;15.13;11.82;;;14.80;99.90;;;;;;4937015;29;20433;-74
2021/10/08 10:36:41;;;;;;;16.00;11.65;;;14.70;99.90;;;;;;4954286;28;20042;-73
2021/10/08 10:39:19;;;;;;;15.18;11.80;;;14.70;99.90;;;;;;4937163;29;20110;-73
2021/10/08 10:42:13;;;;;;;15.40;10.85;;;15.00;99.90;;;;;;4953957;28;20394;-73
2021/10/08 10:45:07;;;;;;;16.15;11.93;;;15.30;99.90;;;;;;4937075;29;20031;-73
2021/10/08 10:47:34;;;;;;;15.60;11.75;;;15.10;99.90;;;;;;4936960;29;20066;-74
2021/10/08 10:50:21;;;;;;;15.35;11.80;;;15.00;99.90;;;;;;4953972;28;20015;-73
2021/10/08 10:52:55;;;;;;;12.25;10.65;;;15.10;99.90;;;;;;4954027;29;20478;-73
2021/10/08 10:55:23;;;;;;;16.17;11.90;;;15.30;99.90;;;;;;4934977;29;20031;-73
2021/10/08 10:58:01;;;;;;;14.05;11.60;;;15.30;99.90;;;;;;4917682;29;20027;-73
2021/10/08 11:00:36;;;;;;;15.25;13.25;;;15.30;99.90;;;;;;4934766;29;20024;-73
2021/10/08 11:03:19;;;;;;;25.00;16.23;;;15.30;99.90;;;;;;4934867;29;20194;-73
2021/10/08 11:06:10;;;;;;;13.93;12.27;;;15.30;99.90;;;;;;4917750;29;20053;-73
2021/10/08 11:09:06;;;;;;;14.25;10.93;;;15.50;99.90;;;;;;4944231;28;20023;-73
2021/10/08 11:11:32;;;;;;;13.93;10.43;;;15.60;99.90;;;;;;4924475;29;20282;-73
2021/10/08 11:14:16;;;;;;;15.20;12.05;;;15.90;99.90;;;;;;4953933;28;20438;-73
2021/10/08 11:16:42;;;;;;;14.80;11.68;;;15.60;99.90;;;;;;4962496;28;20030;-73
2021/10/08 11:19:40;;;;;;;17.63;12.90;;;15.50;99.90;;;;;;4957257;28;20379;-73
2021/10/08 11:22:07;;;;;;;17.55;13.07;;;15.30;99.90;;;;;;4953496;29;20032;-74
2021/10/08 11:24:33;;;;;;;15.68;12.75;;;15.20;99.90;;;;;;4953692;29;20078;-73
2021/10/08 11:27:01;;;;;;;17.00;13.15;;;15.10;99.90;;;;;;4953463;29;20031;-73
2021/10/08 11:29:30;;;;;;;20.20;13.80;;;15.00;99.90;;;;;;4953508;29;20366;-73
2021/10/08 11:32:02;;;;;;;17.35;12.80;;;14.90;99.90;;;;;;4953425;29;20051;-73
2021/10/08 11:34:28;;;;;;;16.67;12.30;;;14.90;99.90;;;;;;4953435;28;20041;-73
2021/10/08 11:36:59;;;;;;;16.20;12.45;;;15.00;99.90;;;;;;4953472;29;20114;-73
2021/10/08 11:39:25;;;;;;;16.70;12.90;;;15.20;99.90;;;;;;4953545;29;20031;-73
2021/10/08 11:42:10;;;;;;;17.27;13.68;;;15.20;99.90;;;;;;4953318;29;20452;-73
2021/10/08 11:44:40;;;;;;;18.67;12.68;;;15.30;99.90;;;;;;4953402;28;20028;-73
2021/10/08 11:47:16;;;;;;;16.13;12.43;;;15.50;99.90;;;;;;4953335;28;20110;-73
2021/10/08 11:52:37;;;;;;;16.23;12.30;;;16.50;99.90;;;;;;4933982;29;20036;-73
2021/10/08 11:55:12;;;;;;;15.95;12.50;;;16.80;99.90;;;;;;4934292;29;20028;-73
2021/10/08 11:58:00;;;;;;;18.67;12.95;;;16.60;99.90;;;;;;4920424;29;20051;-73
2021/10/08 12:00:33;;;;;;;17.00;12.55;;;16.00;99.90;;;;;;4945801;29;20023;-73
2021/10/08 12:03:00;;;;;;;14.25;12.15;;;16.00;99.90;;;;;;4956937;28;20023;-73
2021/10/08 12:05:27;;;;;;;17.67;13.38;;;16.50;99.90;;;;;;4956977;29;20024;-73
2021/10/08 12:07:56;;;;;;;17.63;14.05;;;16.70;99.90;;;;;;4957127;28;20023;-73
2021/10/08 12:10:22;;;;;;;18.67;14.13;;;16.60;99.90;;;;;;4967407;28;20034;-73
2021/10/08 12:12:50;;;;;;;19.27;15.25;;;16.60;99.90;;;;;;4941642;29;20031;-73
2021/10/08 12:15:30;;;;;;;17.92;14.43;;;16.60;99.90;;;;;;4956908;29;20023;-74
2021/10/08 12:17:58;;;;;;;15.55;12.93;;;17.10;99.90;;;;;;4951642;29;20114;-74
2021/10/08 12:20:29;;;;;;;18.33;14.20;;;16.80;99.90;;;;;;4956573;28;20549;-74
2021/10/08 12:23:21;;;;;;;17.75;13.75;;;16.30;99.90;;;;;;4956749;29;20049;-73
2021/10/08 12:25:52;;;;;;;20.77;14.73;;;16.20;99.90;;;;;;4956710;29;20054;-74
2021/10/08 12:28:20;;;;;;;19.20;15.18;;;16.30;99.90;;;;;;4956935;29;20051;-74
2021/10/08 12:30:51;;;;;;;17.92;14.77;;;16.80;99.90;;;;;;4956572;28;20478;-73
2021/10/08 12:33:27;;;;;;;18.00;14.40;;;17.50;99.90;;;;;;4956703;28;20110;-74
2021/10/08 12:36:21;;;;;;;19.13;14.20;;;17.60;99.90;;;;;;4937478;29;20127;-74
2021/10/08 12:39:09;;;;;;;17.60;14.10;;;17.60;99.90;;;;;;4937386;29;20031;-73
2021/10/08 12:41:42;;;;;;;17.48;13.65;;;18.20;99.90;;;;;;4937053;29;20036;-74
2021/10/08 12:44:19;;;;;;;18.10;13.75;;;18.30;99.90;;;;;;4937282;29;20118;-74
2021/10/08 12:47:07;;;;;;;17.95;12.82;;;18.50;99.90;;;;;;4919868;29;20023;-73